sensor_id;sensor_type;location;lat;lon;timestamp;pressure;altitude;pressure_sealevel;temperature
68027;BMP180;54819;48.030;14.710;2023-04-24T00:01:05;96598.00;;;11.48
68027;BMP180;54819;48.030;14.710;2023-04-24T00:03:34;96604.00;;;11.50
68027;BMP180;54819;48.030;14.710;2023-04-24T00:06:02;96608.40;;;11.50
68027;BMP180;54819;48.030;14.710;2023-04-24T00:08:29;96612.40;;;11.60
68027;BMP180;54819;48.030;14.710;2023-04-24T00:10:56;96610.40;;;11.60
68027;BMP180;54819;48.030;14.710;2023-04-24T00:13:23;96613.00;;;11.70
68027;BMP180;54819;48.030;14.710;2023-04-24T00:15:50;96614.20;;;11.70
68027;BMP180;54819;48.030;14.710;2023-04-24T00:18:17;96612.20;;;11.80
68027;BMP180;54819;48.030;14.710;2023-04-24T00:20:44;96602.20;;;11.80
68027;BMP180;54819;48.030;14.710;2023-04-24T00:23:11;96598.00;;;11.90
68027;BMP180;54819;48.030;14.710;2023-04-24T00:25:38;96598.60;;;11.90
68027;BMP180;54819;48.030;14.710;2023-04-24T00:28:05;96605.20;;;12.00
68027;BMP180;54819;48.030;14.710;2023-04-24T00:30:32;96611.80;;;12.10
68027;BMP180;54819;48.030;14.710;2023-04-24T00:32:59;96607.20;;;12.20
68027;BMP180;54819;48.030;14.710;2023-04-24T00:35:26;96604.40;;;12.28
68027;BMP180;54819;48.030;14.710;2023-04-24T00:37:52;96604.20;;;12.40
68027;BMP180;54819;48.030;14.710;2023-04-24T00:40:19;96606.20;;;12.40
68027;BMP180;54819;48.030;14.710;2023-04-24T00:42:46;96605.00;;;12.50
68027;BMP180;54819;48.030;14.710;2023-04-24T00:45:13;96605.00;;;12.60
68027;BMP180;54819;48.030;14.710;2023-04-24T00:47:41;96600.20;;;12.70
68027;BMP180;54819;48.030;14.710;2023-04-24T00:50:09;96595.40;;;12.80
68027;BMP180;54819;48.030;14.710;2023-04-24T00:52:36;96594.80;;;12.82
68027;BMP180;54819;48.030;14.710;2023-04-24T00:55:04;96589.60;;;12.90
68027;BMP180;54819;48.030;14.710;2023-04-24T00:57:32;96591.20;;;12.90
68027;BMP180;54819;48.030;14.710;2023-04-24T00:59:59;96594.20;;;13.00
68027;BMP180;54819;48.030;14.710;2023-04-24T01:02:26;96590.20;;;13.02
68027;BMP180;54819;48.030;14.710;2023-04-24T01:04:53;96595.20;;;13.10
68027;BMP180;54819;48.030;14.710;2023-04-24T01:07:20;96596.40;;;13.10
68027;BMP180;54819;48.030;14.710;2023-04-24T01:09:50;96595.80;;;13.20
68027;BMP180;54819;48.030;14.710;2023-04-24T01:12:19;96600.80;;;13.20
68027;BMP180;54819;48.030;14.710;2023-04-24T01:14:46;96592.00;;;13.24
68027;BMP180;54819;48.030;14.710;2023-04-24T01:17:15;96602.60;;;13.30
68027;BMP180;54819;48.030;14.710;2023-04-24T01:19:42;96604.00;;;13.30
68027;BMP180;54819;48.030;14.710;2023-04-24T01:22:14;96599.80;;;13.30
68027;BMP180;54819;48.030;14.710;2023-04-24T01:24:42;96600.20;;;13.30
68027;BMP180;54819;48.030;14.710;2023-04-24T01:27:12;96599.00;;;13.30
68027;BMP180;54819;48.030;14.710;2023-04-24T01:29:39;96599.80;;;13.30
68027;BMP180;54819;48.030;14.710;2023-04-24T01:32:09;96602.00;;;13.30
68027;BMP180;54819;48.030;14.710;2023-04-24T01:34:37;96601.00;;;13.30
68027;BMP180;54819;48.030;14.710;2023-04-24T01:37:04;96604.20;;;13.30
68027;BMP180;54819;48.030;14.710;2023-04-24T01:39:32;96602.60;;;13.30
68027;BMP180;54819;48.030;14.710;2023-04-24T01:42:00;96600.80;;;13.30
68027;BMP180;54819;48.030;14.710;2023-04-24T01:44:28;96604.80;;;13.30
68027;BMP180;54819;48.030;14.710;2023-04-24T01:46:55;96602.60;;;13.30
68027;BMP180;54819;48.030;14.710;2023-04-24T01:49:23;96603.00;;;13.30
68027;BMP180;54819;48.030;14.710;2023-04-24T01:51:49;96603.60;;;13.30
68027;BMP180;54819;48.030;14.710;2023-04-24T01:54:16;96603.40;;;13.30
68027;BMP180;54819;48.030;14.710;2023-04-24T01:56:43;96599.80;;;13.30
68027;BMP180;54819;48.030;14.710;2023-04-24T01:59:11;96600.60;;;13.30
68027;BMP180;54819;48.030;14.710;2023-04-24T02:01:38;96599.40;;;13.28
68027;BMP180;54819;48.030;14.710;2023-04-24T02:04:07;96595.80;;;13.30
68027;BMP180;54819;48.030;14.710;2023-04-24T02:06:35;96596.40;;;13.30
68027;BMP180;54819;48.030;14.710;2023-04-24T02:09:02;96590.40;;;13.26
68027;BMP180;54819;48.030;14.710;2023-04-24T02:11:29;96584.60;;;13.22
68027;BMP180;54819;48.030;14.710;2023-04-24T02:13:57;96584.60;;;13.24
68027;BMP180;54819;48.030;14.710;2023-04-24T02:16:23;96581.60;;;13.20
68027;BMP180;54819;48.030;14.710;2023-04-24T02:18:50;96580.40;;;13.20
68027;BMP180;54819;48.030;14.710;2023-04-24T02:21:17;96583.80;;;13.20
68027;BMP180;54819;48.030;14.710;2023-04-24T02:23:43;96583.40;;;13.20
68027;BMP180;54819;48.030;14.710;2023-04-24T02:26:12;96579.20;;;13.20
68027;BMP180;54819;48.030;14.710;2023-04-24T02:28:39;96581.00;;;13.20
68027;BMP180;54819;48.030;14.710;2023-04-24T02:31:06;96582.80;;;13.20
68027;BMP180;54819;48.030;14.710;2023-04-24T02:33:33;96580.80;;;13.20
68027;BMP180;54819;48.030;14.710;2023-04-24T02:35:59;96580.80;;;13.20
68027;BMP180;54819;48.030;14.710;2023-04-24T02:38:27;96576.00;;;13.20
68027;BMP180;54819;48.030;14.710;2023-04-24T02:40:54;96577.20;;;13.20
68027;BMP180;54819;48.030;14.710;2023-04-24T02:43:21;96578.20;;;13.20
68027;BMP180;54819;48.030;14.710;2023-04-24T02:45:48;96578.20;;;13.20
68027;BMP180;54819;48.030;14.710;2023-04-24T02:48:15;96574.80;;;13.20
68027;BMP180;54819;48.030;14.710;2023-04-24T02:50:42;96574.80;;;13.20
68027;BMP180;54819;48.030;14.710;2023-04-24T02:53:09;96574.20;;;13.20
68027;BMP180;54819;48.030;14.710;2023-04-24T02:55:35;96571.80;;;13.20
68027;BMP180;54819;48.030;14.710;2023-04-24T02:58:02;96574.00;;;13.12
68027;BMP180;54819;48.030;14.710;2023-04-24T03:00:29;96572.40;;;13.10
68027;BMP180;54819;48.030;14.710;2023-04-24T03:02:56;96575.20;;;13.14
68027;BMP180;54819;48.030;14.710;2023-04-24T03:05:23;96572.00;;;13.16
68027;BMP180;54819;48.030;14.710;2023-04-24T03:07:50;96574.00;;;13.20
68027;BMP180;54819;48.030;14.710;2023-04-24T03:10:20;96567.80;;;13.20
68027;BMP180;54819;48.030;14.710;2023-04-24T03:12:49;96570.80;;;13.20
68027;BMP180;54819;48.030;14.710;2023-04-24T03:15:17;96568.00;;;13.20
68027;BMP180;54819;48.030;14.710;2023-04-24T03:17:44;96562.00;;;13.18
68027;BMP180;54819;48.030;14.710;2023-04-24T03:20:12;96562.80;;;13.20
68027;BMP180;54819;48.030;14.710;2023-04-24T03:22:38;96555.80;;;13.20
68027;BMP180;54819;48.030;14.710;2023-04-24T03:25:06;96560.60;;;13.20
68027;BMP180;54819;48.030;14.710;2023-04-24T03:27:36;96559.20;;;13.20
68027;BMP180;54819;48.030;14.710;2023-04-24T03:30:14;96561.60;;;13.20
68027;BMP180;54819;48.030;14.710;2023-04-24T03:32:45;96562.60;;;13.20
68027;BMP180;54819;48.030;14.710;2023-04-24T03:35:14;96564.40;;;13.20
68027;BMP180;54819;48.030;14.710;2023-04-24T03:37:41;96565.80;;;13.20
68027;BMP180;54819;48.030;14.710;2023-04-24T03:40:26;96570.20;;;13.20
68027;BMP180;54819;48.030;14.710;2023-04-24T03:42:55;96569.00;;;13.20
68027;BMP180;54819;48.030;14.710;2023-04-24T03:45:22;96565.60;;;13.24
68027;BMP180;54819;48.030;14.710;2023-04-24T03:47:49;96572.60;;;13.26
68027;BMP180;54819;48.030;14.710;2023-04-24T03:50:16;96572.20;;;13.30
68027;BMP180;54819;48.030;14.710;2023-04-24T03:52:43;96577.00;;;13.28
68027;BMP180;54819;48.030;14.710;2023-04-24T03:55:12;96577.00;;;13.30
68027;BMP180;54819;48.030;14.710;2023-04-24T03:57:43;96582.60;;;13.30
68027;BMP180;54819;48.030;14.710;2023-04-24T04:00:17;96581.80;;;13.30
68027;BMP180;54819;48.030;14.710;2023-04-24T04:02:45;96582.60;;;13.30
68027;BMP180;54819;48.030;14.710;2023-04-24T04:05:12;96581.00;;;13.30
68027;BMP180;54819;48.030;14.710;2023-04-24T04:07:40;96579.80;;;13.30
68027;BMP180;54819;48.030;14.710;2023-04-24T04:10:08;96584.20;;;13.30
68027;BMP180;54819;48.030;14.710;2023-04-24T04:12:35;96582.20;;;13.30
68027;BMP180;54819;48.030;14.710;2023-04-24T04:15:03;96580.00;;;13.30
68027;BMP180;54819;48.030;14.710;2023-04-24T04:17:31;96579.20;;;13.30
68027;BMP180;54819;48.030;14.710;2023-04-24T04:19:59;96580.80;;;13.30
68027;BMP180;54819;48.030;14.710;2023-04-24T04:22:27;96579.80;;;13.30
68027;BMP180;54819;48.030;14.710;2023-04-24T04:24:53;96576.80;;;13.32
68027;BMP180;54819;48.030;14.710;2023-04-24T04:27:21;96579.60;;;13.38
68027;BMP180;54819;48.030;14.710;2023-04-24T04:29:54;96580.20;;;13.40
68027;BMP180;54819;48.030;14.710;2023-04-24T04:32:23;96578.20;;;13.40
68027;BMP180;54819;48.030;14.710;2023-04-24T04:34:50;96579.40;;;13.40
68027;BMP180;54819;48.030;14.710;2023-04-24T04:37:20;96582.80;;;13.40
68027;BMP180;54819;48.030;14.710;2023-04-24T04:40:02;96582.60;;;13.40
68027;BMP180;54819;48.030;14.710;2023-04-24T04:42:37;96581.20;;;13.40
68027;BMP180;54819;48.030;14.710;2023-04-24T04:45:08;96575.20;;;13.44
68027;BMP180;54819;48.030;14.710;2023-04-24T04:47:43;96578.60;;;13.50
68027;BMP180;54819;48.030;14.710;2023-04-24T04:50:11;96579.20;;;13.50
68027;BMP180;54819;48.030;14.710;2023-04-24T04:52:38;96579.20;;;13.50
68027;BMP180;54819;48.030;14.710;2023-04-24T04:55:18;96583.00;;;13.50
68027;BMP180;54819;48.030;14.710;2023-04-24T04:58:03;96589.20;;;13.50
68027;BMP180;54819;48.030;14.710;2023-04-24T05:00:30;96592.20;;;13.40
68027;BMP180;54819;48.030;14.710;2023-04-24T05:03:05;96594.60;;;13.40
68027;BMP180;54819;48.030;14.710;2023-04-24T05:05:46;96598.60;;;13.40
68027;BMP180;54819;48.030;14.710;2023-04-24T05:08:13;96598.60;;;13.36
68027;BMP180;54819;48.030;14.710;2023-04-24T05:10:43;96608.40;;;13.30
68027;BMP180;54819;48.030;14.710;2023-04-24T05:13:10;96610.80;;;13.40
68027;BMP180;54819;48.030;14.710;2023-04-24T05:15:39;96617.20;;;13.32
68027;BMP180;54819;48.030;14.710;2023-04-24T05:18:06;96619.40;;;13.30
68027;BMP180;54819;48.030;14.710;2023-04-24T05:20:33;96618.80;;;13.30
68027;BMP180;54819;48.030;14.710;2023-04-24T05:23:00;96627.00;;;13.20
68027;BMP180;54819;48.030;14.710;2023-04-24T05:25:28;96633.00;;;13.18
68027;BMP180;54819;48.030;14.710;2023-04-24T05:27:59;96628.20;;;13.10
68027;BMP180;54819;48.030;14.710;2023-04-24T05:30:26;96634.20;;;13.10
68027;BMP180;54819;48.030;14.710;2023-04-24T05:32:53;96633.60;;;13.10
68027;BMP180;54819;48.030;14.710;2023-04-24T05:35:20;96636.40;;;13.10
68027;BMP180;54819;48.030;14.710;2023-04-24T05:37:47;96640.40;;;13.10
68027;BMP180;54819;48.030;14.710;2023-04-24T05:40:14;96640.80;;;13.10
68027;BMP180;54819;48.030;14.710;2023-04-24T05:42:41;96647.40;;;13.02
68027;BMP180;54819;48.030;14.710;2023-04-24T05:45:08;96645.80;;;13.00
68027;BMP180;54819;48.030;14.710;2023-04-24T05:47:38;96645.20;;;13.10
68027;BMP180;54819;48.030;14.710;2023-04-24T05:50:05;96644.00;;;13.10
68027;BMP180;54819;48.030;14.710;2023-04-24T05:52:32;96648.00;;;13.10
68027;BMP180;54819;48.030;14.710;2023-04-24T05:55:01;96650.40;;;13.10
68027;BMP180;54819;48.030;14.710;2023-04-24T05:57:31;96651.20;;;13.06
68027;BMP180;54819;48.030;14.710;2023-04-24T06:00:01;96647.60;;;13.10
68027;BMP180;54819;48.030;14.710;2023-04-24T06:02:28;96645.40;;;13.10
68027;BMP180;54819;48.030;14.710;2023-04-24T06:04:59;96652.00;;;13.20
68027;BMP180;54819;48.030;14.710;2023-04-24T06:07:26;96651.00;;;13.12
68027;BMP180;54819;48.030;14.710;2023-04-24T06:09:53;96651.00;;;13.10
68027;BMP180;54819;48.030;14.710;2023-04-24T06:12:20;96651.00;;;13.18
68027;BMP180;54819;48.030;14.710;2023-04-24T06:14:59;96653.40;;;13.20
68027;BMP180;54819;48.030;14.710;2023-04-24T06:17:45;96649.00;;;13.20
68027;BMP180;54819;48.030;14.710;2023-04-24T06:20:14;96655.20;;;13.20
68027;BMP180;54819;48.030;14.710;2023-04-24T06:22:40;96651.00;;;13.20
68027;BMP180;54819;48.030;14.710;2023-04-24T06:25:08;96654.40;;;13.20
68027;BMP180;54819;48.030;14.710;2023-04-24T06:27:35;96654.00;;;13.20
68027;BMP180;54819;48.030;14.710;2023-04-24T06:30:03;96652.20;;;13.12
68027;BMP180;54819;48.030;14.710;2023-04-24T06:32:29;96652.60;;;13.16
68027;BMP180;54819;48.030;14.710;2023-04-24T06:34:58;96649.20;;;13.20
68027;BMP180;54819;48.030;14.710;2023-04-24T06:37:25;96650.80;;;13.20
68027;BMP180;54819;48.030;14.710;2023-04-24T06:39:52;96651.80;;;13.20
68027;BMP180;54819;48.030;14.710;2023-04-24T06:42:19;96656.60;;;13.20
68027;BMP180;54819;48.030;14.710;2023-04-24T06:44:48;96650.80;;;13.20
68027;BMP180;54819;48.030;14.710;2023-04-24T06:47:15;96655.20;;;13.20
68027;BMP180;54819;48.030;14.710;2023-04-24T06:49:42;96653.80;;;13.22
68027;BMP180;54819;48.030;14.710;2023-04-24T06:52:09;96654.20;;;13.30
68027;BMP180;54819;48.030;14.710;2023-04-24T06:54:36;96651.80;;;13.20
68027;BMP180;54819;48.030;14.710;2023-04-24T06:57:03;96655.40;;;13.20
68027;BMP180;54819;48.030;14.710;2023-04-24T06:59:30;96649.40;;;13.20
68027;BMP180;54819;48.030;14.710;2023-04-24T07:01:57;96654.20;;;13.20
68027;BMP180;54819;48.030;14.710;2023-04-24T07:04:24;96652.20;;;13.24
68027;BMP180;54819;48.030;14.710;2023-04-24T07:06:52;96657.00;;;13.24
68027;BMP180;54819;48.030;14.710;2023-04-24T07:09:23;96657.00;;;13.30
68027;BMP180;54819;48.030;14.710;2023-04-24T07:11:51;96661.40;;;13.30
68027;BMP180;54819;48.030;14.710;2023-04-24T07:14:18;96659.40;;;13.30
68027;BMP180;54819;48.030;14.710;2023-04-24T07:16:45;96662.00;;;13.36
68027;BMP180;54819;48.030;14.710;2023-04-24T07:19:13;96668.20;;;13.30
68027;BMP180;54819;48.030;14.710;2023-04-24T07:21:40;96665.20;;;13.32
68027;BMP180;54819;48.030;14.710;2023-04-24T07:24:07;96668.80;;;13.40
68027;BMP180;54819;48.030;14.710;2023-04-24T07:26:38;96671.40;;;13.40
68027;BMP180;54819;48.030;14.710;2023-04-24T07:29:07;96672.60;;;13.50
68027;BMP180;54819;48.030;14.710;2023-04-24T07:31:34;96674.40;;;13.50
68027;BMP180;54819;48.030;14.710;2023-04-24T07:34:01;96677.40;;;13.50
68027;BMP180;54819;48.030;14.710;2023-04-24T07:36:28;96678.40;;;13.60
68027;BMP180;54819;48.030;14.710;2023-04-24T07:38:55;96674.60;;;13.62
68027;BMP180;54819;48.030;14.710;2023-04-24T07:41:23;96675.60;;;13.70
68027;BMP180;54819;48.030;14.710;2023-04-24T07:43:51;96673.00;;;13.76
68027;BMP180;54819;48.030;14.710;2023-04-24T07:46:20;96674.60;;;13.80
68027;BMP180;54819;48.030;14.710;2023-04-24T07:48:47;96675.20;;;13.90
68027;BMP180;54819;48.030;14.710;2023-04-24T07:51:27;96681.80;;;13.90
68027;BMP180;54819;48.030;14.710;2023-04-24T07:53:54;96681.60;;;13.90
68027;BMP180;54819;48.030;14.710;2023-04-24T07:56:24;96683.00;;;13.94
68027;BMP180;54819;48.030;14.710;2023-04-24T07:58:53;96684.40;;;14.00
68027;BMP180;54819;48.030;14.710;2023-04-24T08:01:20;96686.20;;;14.04
68027;BMP180;54819;48.030;14.710;2023-04-24T08:03:47;96688.40;;;14.10
68027;BMP180;54819;48.030;14.710;2023-04-24T08:06:14;96698.00;;;14.18
68027;BMP180;54819;48.030;14.710;2023-04-24T08:08:41;96696.40;;;14.26
68027;BMP180;54819;48.030;14.710;2023-04-24T08:11:07;96693.40;;;14.30
68027;BMP180;54819;48.030;14.710;2023-04-24T08:13:34;96699.00;;;14.30
68027;BMP180;54819;48.030;14.710;2023-04-24T08:16:01;96697.20;;;14.40
68027;BMP180;54819;48.030;14.710;2023-04-24T08:18:28;96697.20;;;14.40
68027;BMP180;54819;48.030;14.710;2023-04-24T08:20:55;96701.40;;;14.50
68027;BMP180;54819;48.030;14.710;2023-04-24T08:23:22;96696.20;;;14.50
68027;BMP180;54819;48.030;14.710;2023-04-24T08:25:49;96705.00;;;14.58
68027;BMP180;54819;48.030;14.710;2023-04-24T08:28:15;96705.60;;;14.60
68027;BMP180;54819;48.030;14.710;2023-04-24T08:30:46;96704.40;;;14.50
68027;BMP180;54819;48.030;14.710;2023-04-24T08:33:14;96700.00;;;14.50
68027;BMP180;54819;48.030;14.710;2023-04-24T08:35:41;96702.20;;;14.50
68027;BMP180;54819;48.030;14.710;2023-04-24T08:38:08;96705.40;;;14.50
68027;BMP180;54819;48.030;14.710;2023-04-24T08:40:36;96709.00;;;14.60
68027;BMP180;54819;48.030;14.710;2023-04-24T08:43:03;96711.80;;;14.62
68027;BMP180;54819;48.030;14.710;2023-04-24T08:45:32;96715.20;;;14.72
68027;BMP180;54819;48.030;14.710;2023-04-24T08:48:00;96713.40;;;14.90
68027;BMP180;54819;48.030;14.710;2023-04-24T08:50:27;96717.20;;;15.00
68027;BMP180;54819;48.030;14.710;2023-04-24T08:52:55;96718.40;;;15.10
68027;BMP180;54819;48.030;14.710;2023-04-24T08:55:24;96720.20;;;15.18
68027;BMP180;54819;48.030;14.710;2023-04-24T08:57:53;96719.80;;;15.20
68027;BMP180;54819;48.030;14.710;2023-04-24T09:00:21;96723.20;;;15.32
68027;BMP180;54819;48.030;14.710;2023-04-24T09:02:53;96719.00;;;15.40
68027;BMP180;54819;48.030;14.710;2023-04-24T09:05:22;96716.40;;;15.50
68027;BMP180;54819;48.030;14.710;2023-04-24T09:07:56;96717.60;;;15.58
68027;BMP180;54819;48.030;14.710;2023-04-24T09:10:25;96716.60;;;15.58
68027;BMP180;54819;48.030;14.710;2023-04-24T09:12:54;96720.80;;;15.64
68027;BMP180;54819;48.030;14.710;2023-04-24T09:15:24;96713.80;;;15.78
68027;BMP180;54819;48.030;14.710;2023-04-24T09:17:51;96717.60;;;15.90
68027;BMP180;54819;48.030;14.710;2023-04-24T09:20:17;96722.20;;;16.00
68027;BMP180;54819;48.030;14.710;2023-04-24T09:22:45;96722.00;;;16.10
68027;BMP180;54819;48.030;14.710;2023-04-24T09:25:11;96724.60;;;16.16
68027;BMP180;54819;48.030;14.710;2023-04-24T09:27:45;96722.00;;;16.20
68027;BMP180;54819;48.030;14.710;2023-04-24T09:30:13;96727.00;;;16.26
68027;BMP180;54819;48.030;14.710;2023-04-24T09:32:40;96722.60;;;16.30
68027;BMP180;54819;48.030;14.710;2023-04-24T09:35:13;96724.60;;;16.30
68027;BMP180;54819;48.030;14.710;2023-04-24T09:37:43;96730.00;;;16.40
68027;BMP180;54819;48.030;14.710;2023-04-24T09:40:19;96725.60;;;16.30
68027;BMP180;54819;48.030;14.710;2023-04-24T09:42:56;96726.40;;;16.30
68027;BMP180;54819;48.030;14.710;2023-04-24T09:45:42;96728.20;;;16.30
68027;BMP180;54819;48.030;14.710;2023-04-24T09:48:10;96720.60;;;16.38
68027;BMP180;54819;48.030;14.710;2023-04-24T09:50:37;96721.20;;;16.40
68027;BMP180;54819;48.030;14.710;2023-04-24T09:53:06;96719.80;;;16.40
68027;BMP180;54819;48.030;14.710;2023-04-24T09:55:45;96720.00;;;16.50
68027;BMP180;54819;48.030;14.710;2023-04-24T09:58:16;96719.40;;;16.62
68027;BMP180;54819;48.030;14.710;2023-04-24T10:00:45;96719.80;;;16.70
68027;BMP180;54819;48.030;14.710;2023-04-24T10:03:12;96719.80;;;16.80
68027;BMP180;54819;48.030;14.710;2023-04-24T10:05:39;96722.60;;;16.90
68027;BMP180;54819;48.030;14.710;2023-04-24T10:08:09;96720.20;;;17.00
68027;BMP180;54819;48.030;14.710;2023-04-24T10:10:42;96716.60;;;17.10
68027;BMP180;54819;48.030;14.710;2023-04-24T10:13:10;96717.20;;;17.20
68027;BMP180;54819;48.030;14.710;2023-04-24T10:15:40;96721.00;;;17.40
68027;BMP180;54819;48.030;14.710;2023-04-24T10:18:09;96718.40;;;17.50
68027;BMP180;54819;48.030;14.710;2023-04-24T10:20:39;96715.40;;;17.68
68027;BMP180;54819;48.030;14.710;2023-04-24T10:23:07;96715.00;;;17.80
68027;BMP180;54819;48.030;14.710;2023-04-24T10:25:36;96713.80;;;17.94
68027;BMP180;54819;48.030;14.710;2023-04-24T10:28:04;96709.60;;;18.10
68027;BMP180;54819;48.030;14.710;2023-04-24T10:30:35;96708.80;;;18.30
68027;BMP180;54819;48.030;14.710;2023-04-24T10:33:08;96711.80;;;18.40
68027;BMP180;54819;48.030;14.710;2023-04-24T10:35:44;96705.20;;;18.60
68027;BMP180;54819;48.030;14.710;2023-04-24T10:38:14;96707.20;;;18.78
68027;BMP180;54819;48.030;14.710;2023-04-24T10:40:42;96701.80;;;19.10
68027;BMP180;54819;48.030;14.710;2023-04-24T10:43:09;96703.80;;;19.12
68027;BMP180;54819;48.030;14.710;2023-04-24T10:45:38;96700.20;;;19.20
68027;BMP180;54819;48.030;14.710;2023-04-24T10:48:08;96695.40;;;19.38
68027;BMP180;54819;48.030;14.710;2023-04-24T10:50:51;96693.40;;;19.44
68027;BMP180;54819;48.030;14.710;2023-04-24T10:53:29;96690.60;;;19.60
68027;BMP180;54819;48.030;14.710;2023-04-24T10:56:07;96687.80;;;19.70
68027;BMP180;54819;48.030;14.710;2023-04-24T10:58:51;96686.80;;;19.86
68027;BMP180;54819;48.030;14.710;2023-04-24T11:01:32;96684.80;;;20.00
68027;BMP180;54819;48.030;14.710;2023-04-24T11:04:03;96681.40;;;20.04
68027;BMP180;54819;48.030;14.710;2023-04-24T11:06:36;96680.00;;;20.20
68027;BMP180;54819;48.030;14.710;2023-04-24T11:09:10;96679.00;;;20.30
68027;BMP180;54819;48.030;14.710;2023-04-24T11:11:46;96680.60;;;20.30
68027;BMP180;54819;48.030;14.710;2023-04-24T11:14:16;96680.00;;;20.30
68027;BMP180;54819;48.030;14.710;2023-04-24T11:16:54;96680.00;;;20.10
68027;BMP180;54819;48.030;14.710;2023-04-24T11:19:25;96680.40;;;19.80
68027;BMP180;54819;48.030;14.710;2023-04-24T11:27:21;96673.00;;;19.70
68027;BMP180;54819;48.030;14.710;2023-04-24T11:35:18;96669.40;;;20.36
68027;BMP180;54819;48.030;14.710;2023-04-24T11:37:50;96672.80;;;20.30
68027;BMP180;54819;48.030;14.710;2023-04-24T11:40:22;96672.80;;;20.22
68027;BMP180;54819;48.030;14.710;2023-04-24T11:42:52;96667.20;;;20.20
68027;BMP180;54819;48.030;14.710;2023-04-24T11:45:24;96661.20;;;20.20
68027;BMP180;54819;48.030;14.710;2023-04-24T11:47:52;96670.20;;;20.10
68027;BMP180;54819;48.030;14.710;2023-04-24T11:50:23;96671.20;;;19.90
68027;BMP180;54819;48.030;14.710;2023-04-24T11:52:52;96665.80;;;19.72
68027;BMP180;54819;48.030;14.710;2023-04-24T11:57:50;96669.60;;;19.42
68027;BMP180;54819;48.030;14.710;2023-04-24T12:00:20;96666.40;;;19.30
68027;BMP180;54819;48.030;14.710;2023-04-24T12:02:49;96663.80;;;19.50
68027;BMP180;54819;48.030;14.710;2023-04-24T12:05:25;96664.00;;;19.68
68027;BMP180;54819;48.030;14.710;2023-04-24T12:07:54;96660.40;;;19.70
68027;BMP180;54819;48.030;14.710;2023-04-24T12:10:24;96655.60;;;19.50
68027;BMP180;54819;48.030;14.710;2023-04-24T12:12:52;96657.40;;;19.40
68027;BMP180;54819;48.030;14.710;2023-04-24T12:15:20;96664.80;;;19.20
68027;BMP180;54819;48.030;14.710;2023-04-24T12:17:48;96666.00;;;19.00
68027;BMP180;54819;48.030;14.710;2023-04-24T12:20:16;96658.80;;;19.00
68027;BMP180;54819;48.030;14.710;2023-04-24T12:22:52;96663.80;;;18.86
68027;BMP180;54819;48.030;14.710;2023-04-24T12:25:24;96661.80;;;18.80
68027;BMP180;54819;48.030;14.710;2023-04-24T12:28:12;96670.60;;;18.80
68027;BMP180;54819;48.030;14.710;2023-04-24T12:30:44;96662.20;;;18.90
68027;BMP180;54819;48.030;14.710;2023-04-24T12:33:11;96662.00;;;19.14
68027;BMP180;54819;48.030;14.710;2023-04-24T12:35:40;96661.80;;;19.20
68027;BMP180;54819;48.030;14.710;2023-04-24T12:38:15;96662.40;;;19.10
68027;BMP180;54819;48.030;14.710;2023-04-24T12:40:43;96663.60;;;19.10
68027;BMP180;54819;48.030;14.710;2023-04-24T12:43:18;96663.20;;;19.00
68027;BMP180;54819;48.030;14.710;2023-04-24T12:45:48;96664.60;;;18.80
68027;BMP180;54819;48.030;14.710;2023-04-24T12:48:15;96664.60;;;18.50
68027;BMP180;54819;48.030;14.710;2023-04-24T12:50:43;96664.80;;;18.44
68027;BMP180;54819;48.030;14.710;2023-04-24T12:53:13;96664.00;;;18.40
68027;BMP180;54819;48.030;14.710;2023-04-24T12:55:41;96665.00;;;18.40
68027;BMP180;54819;48.030;14.710;2023-04-24T12:58:08;96707.00;;;18.22
68027;BMP180;54819;48.030;14.710;2023-04-24T13:00:35;96753.80;;;17.74
68027;BMP180;54819;48.030;14.710;2023-04-24T13:03:03;96768.60;;;16.98
68027;BMP180;54819;48.030;14.710;2023-04-24T13:05:30;96775.00;;;16.14
68027;BMP180;54819;48.030;14.710;2023-04-24T13:07:57;96782.00;;;15.46
68027;BMP180;54819;48.030;14.710;2023-04-24T13:10:24;96782.00;;;14.86
68027;BMP180;54819;48.030;14.710;2023-04-24T13:12:51;96793.80;;;14.52
68027;BMP180;54819;48.030;14.710;2023-04-24T13:15:18;96793.60;;;14.32
68027;BMP180;54819;48.030;14.710;2023-04-24T13:17:44;96804.40;;;14.10
68027;BMP180;54819;48.030;14.710;2023-04-24T13:20:11;96797.80;;;13.90
68027;BMP180;54819;48.030;14.710;2023-04-24T13:22:38;96804.00;;;13.90
68027;BMP180;54819;48.030;14.710;2023-04-24T13:25:05;96803.80;;;13.80
68027;BMP180;54819;48.030;14.710;2023-04-24T13:27:38;96802.60;;;13.80
68027;BMP180;54819;48.030;14.710;2023-04-24T13:30:06;96799.40;;;13.80
68027;BMP180;54819;48.030;14.710;2023-04-24T13:32:33;96800.60;;;13.80
68027;BMP180;54819;48.030;14.710;2023-04-24T13:35:02;96793.40;;;13.90
68027;BMP180;54819;48.030;14.710;2023-04-24T13:37:29;96791.00;;;13.92
68027;BMP180;54819;48.030;14.710;2023-04-24T13:39:55;96787.60;;;14.00
68027;BMP180;54819;48.030;14.710;2023-04-24T13:42:22;96787.20;;;14.12
68027;BMP180;54819;48.030;14.710;2023-04-24T13:44:49;96782.40;;;14.30
68027;BMP180;54819;48.030;14.710;2023-04-24T13:47:17;96778.40;;;14.34
68027;BMP180;54819;48.030;14.710;2023-04-24T13:49:44;96780.60;;;14.34
68027;BMP180;54819;48.030;14.710;2023-04-24T13:52:11;96774.60;;;14.30
68027;BMP180;54819;48.030;14.710;2023-04-24T13:54:37;96774.00;;;14.32
68027;BMP180;54819;48.030;14.710;2023-04-24T13:57:04;96767.60;;;14.40
68027;BMP180;54819;48.030;14.710;2023-04-24T13:59:31;96760.60;;;14.50
68027;BMP180;54819;48.030;14.710;2023-04-24T14:01:58;96760.80;;;14.60
68027;BMP180;54819;48.030;14.710;2023-04-24T14:04:24;96756.40;;;14.70
68027;BMP180;54819;48.030;14.710;2023-04-24T14:06:52;96759.80;;;14.86
68027;BMP180;54819;48.030;14.710;2023-04-24T14:09:18;96758.40;;;14.90
68027;BMP180;54819;48.030;14.710;2023-04-24T14:11:45;96759.00;;;15.00
68027;BMP180;54819;48.030;14.710;2023-04-24T14:14:12;96755.60;;;15.00
68027;BMP180;54819;48.030;14.710;2023-04-24T14:16:39;96757.40;;;15.10
68027;BMP180;54819;48.030;14.710;2023-04-24T14:19:06;96755.80;;;15.14